Terminal Aerodrome Forecast
Issued by NWS Cleveland, OH

Home | Current Version | Previous Version | Graphics & Text | Print | Product List | Glossary On
Versions: 1 2 3 4 5 6 7 8 9 10 11 12 13 14
000
FTUS41 KCLE 271732
TAFCAK
TAF
KCAK 271732Z 2718/2818 24008KT P6SM FEW045
     FM280100 18003KT P6SM SCT250
      TEMPO 2809/2811 5SM BR=

USA.gov is the U.S. government's official web portal to all federal, state and local government web resources and services.